Time;durP1;ratioP1;P1;durP2;ratioP2;P2;SDS_P1;SDS_P2;PMS_P1;PMS_P2;Temp;Humidity;BMP_temperature;BMP_pressure;BME280_temperature;BME280_humidity;BME280_pressure;Samples;Min_cycle;Max_cycle;Signal;HPM_P1;HPM_P2
2022/11/29 00:00:46;;;;;;;3.60;3.35;;;;;;;;;;5053068;28;20135;-74
2022/11/29 00:03:12;;;;;;;9.05;8.25;;;;;;;;;;5052125;28;20615;-74
2022/11/29 00:05:38;;;;;;;6.65;6.05;;;;;;;;;;5071598;28;20033;-73
2022/11/29 00:08:04;;;;;;;5.07;4.65;;;;;;;;;;5071182;28;20054;-74
2022/11/29 00:10:30;;;;;;;7.45;6.68;;;;;;;;;;5071407;28;20043;-72
2022/11/29 00:12:56;;;;;;;10.52;9.38;;;;;;;;;;5071335;28;20044;-72
2022/11/29 00:15:22;;;;;;;14.55;9.20;;;;;;;;;;5071091;28;20381;-73
2022/11/29 00:17:49;;;;;;;11.82;7.63;;;;;;;;;;5053256;28;20028;-73
2022/11/29 00:20:14;;;;;;;4.70;4.25;;;;;;;;;;5036856;28;20413;-74
2022/11/29 00:22:40;;;;;;;14.02;10.13;;;;;;;;;;5071177;28;20052;-74
2022/11/29 00:25:06;;;;;;;7.32;6.65;;;;;;;;;;5071175;28;20466;-73
2022/11/29 00:27:32;;;;;;;9.70;8.52;;;;;;;;;;5071141;28;20036;-73
2022/11/29 00:29:58;;;;;;;12.95;9.80;;;;;;;;;;5071203;28;20419;-73
2022/11/29 00:32:24;;;;;;;11.38;10.25;;;;;;;;;;5071105;28;20032;-74
2022/11/29 00:34:50;;;;;;;10.25;8.85;;;;;;;;;;5071305;28;20032;-74
2022/11/29 00:37:16;;;;;;;15.27;10.07;;;;;;;;;;5069831;28;20040;-73
2022/11/29 00:39:42;;;;;;;9.70;8.57;;;;;;;;;;5053069;28;20381;-73
2022/11/29 00:42:08;;;;;;;6.95;6.30;;;;;;;;;;5070907;28;20412;-73
2022/11/29 00:44:34;;;;;;;8.80;7.57;;;;;;;;;;5053831;28;20044;-73
2022/11/29 00:47:00;;;;;;;10.65;8.30;;;;;;;;;;5071143;28;20036;-73
2022/11/29 00:49:26;;;;;;;8.32;6.90;;;;;;;;;;5053672;28;20519;-73
2022/11/29 00:51:51;;;;;;;8.27;7.35;;;;;;;;;;5055959;28;20040;-74
2022/11/29 00:54:18;;;;;;;5.25;4.85;;;;;;;;;;5055789;28;20036;-73
2022/11/29 00:56:44;;;;;;;17.05;10.75;;;;;;;;;;5076031;28;20036;-73
2022/11/29 00:59:10;;;;;;;6.40;5.80;;;;;;;;;;5074377;28;20473;-73
2022/11/29 01:01:36;;;;;;;14.18;7.82;;;;;;;;;;5074516;28;20032;-75
2022/11/29 01:04:02;;;;;;;10.63;9.65;;;;;;;;;;5073372;28;20043;-74
2022/11/29 01:06:27;;;;;;;17.17;13.52;;;;;;;;;;5056692;28;20090;-74
2022/11/29 01:08:53;;;;;;;11.45;9.60;;;;;;;;;;5057743;28;20028;-73
2022/11/29 01:11:20;;;;;;;7.13;6.45;;;;;;;;;;5062244;28;20306;-74
2022/11/29 01:13:46;;;;;;;10.18;8.27;;;;;;;;;;5081072;28;20121;-74
2022/11/29 01:16:13;;;;;;;12.00;8.90;;;;;;;;;;5073817;28;20157;-74
2022/11/29 01:18:39;;;;;;;17.23;14.77;;;;;;;;;;5073520;28;20036;-73
2022/11/29 01:21:06;;;;;;;16.25;12.63;;;;;;;;;;5055058;28;20523;-74
2022/11/29 01:23:32;;;;;;;11.98;10.65;;;;;;;;;;5071559;28;20047;-74
2022/11/29 01:25:57;;;;;;;10.20;9.18;;;;;;;;;;5036816;28;20036;-74
2022/11/29 01:28:23;;;;;;;9.18;8.30;;;;;;;;;;5070366;28;20508;-75
2022/11/29 01:30:49;;;;;;;11.68;9.80;;;;;;;;;;5053822;28;20518;-74
2022/11/29 01:33:15;;;;;;;15.57;10.40;;;;;;;;;;5073822;28;20067;-74
2022/11/29 01:35:46;;;;;;;10.18;9.15;;;;;;;;;;5052354;28;20048;-74
2022/11/29 01:38:12;;;;;;;7.05;6.38;;;;;;;;;;5070445;28;20070;-73
2022/11/29 01:40:38;;;;;;;13.75;10.10;;;;;;;;;;5071019;28;20051;-74
2022/11/29 01:43:09;;;;;;;12.43;10.02;;;;;;;;;;5070996;28;20504;-74
2022/11/29 01:45:35;;;;;;;;;;;;;;;;;;5054392;28;20041;-73
2022/11/29 01:48:01;;;;;;;8.00;7.28;;;;;;;;;;5067506;28;19920;-73
2022/11/29 01:50:27;;;;;;;6.30;5.75;;;;;;;;;;5059445;28;20088;-73
2022/11/29 01:52:53;;;;;;;8.70;7.82;;;;;;;;;;5078997;28;20075;-73
2022/11/29 01:55:19;;;;;;;7.53;6.78;;;;;;;;;;5061772;28;20537;-71
2022/11/29 01:57:45;;;;;;;7.50;5.43;;;;;;;;;;5082716;28;20028;-73
2022/11/29 02:00:12;;;;;;;6.53;5.88;;;;;;;;;;5091467;28;20054;-73
2022/11/29 02:02:45;;;;;;;10.75;9.50;;;;;;;;;;5091800;28;20121;-74
2022/11/29 02:05:12;;;;;;;10.90;9.90;;;;;;;;;;5097207;28;20036;-73
2022/11/29 02:07:38;;;;;;;7.00;5.65;;;;;;;;;;5059579;28;20037;-72
2022/11/29 02:10:04;;;;;;;6.20;5.70;;;;;;;;;;5057650;28;20024;-73
2022/11/29 02:12:36;;;;;;;5.72;5.30;;;;;;;;;;5073852;28;20093;-74
2022/11/29 02:15:06;;;;;;;6.55;6.00;;;;;;;;;;5047031;28;20032;-73
2022/11/29 02:17:33;;;;;;;8.40;7.68;;;;;;;;;;5093735;28;20032;-73
2022/11/29 02:20:05;;;;;;;6.65;5.95;;;;;;;;;;5092490;28;20032;-74
2022/11/29 02:22:46;;;;;;;6.40;5.88;;;;;;;;;;5094797;28;20093;-73
2022/11/29 02:25:23;;;;;;;6.03;5.60;;;;;;;;;;5077094;28;20051;-73
2022/11/29 02:28:07;;;;;;;7.22;6.60;;;;;;;;;;5092306;28;20561;-74
2022/11/29 02:30:46;;;;;;;6.13;5.55;;;;;;;;;;5077033;28;20111;-73
2022/11/29 02:33:12;;;;;;;5.30;4.88;;;;;;;;;;5076026;28;20193;-74
2022/11/29 02:36:04;;;;;;;6.90;6.40;;;;;;;;;;5075509;28;20471;-74
2022/11/29 02:38:49;;;;;;;9.45;8.50;;;;;;;;;;5045090;28;20071;-73
2022/11/29 02:41:17;;;;;;;6.68;5.97;;;;;;;;;;5075769;28;20064;-73
2022/11/29 02:43:59;;;;;;;6.07;5.53;;;;;;;;;;5074085;28;20056;-73
2022/11/29 02:46:25;;;;;;;;;;;;;;;;;;5073048;28;20036;-73
2022/11/29 02:49:09;;;;;;;9.48;8.23;;;;;;;;;;5074211;28;20306;-73
2022/11/29 02:51:50;;;;;;;6.63;6.10;;;;;;;;;;5022985;28;20119;-73
2022/11/29 02:54:33;;;;;;;7.35;6.78;;;;;;;;;;5054100;28;20029;-74
2022/11/29 02:57:18;;;;;;;6.70;6.20;;;;;;;;;;5052197;28;20044;-73
2022/11/29 02:59:50;;;;;;;7.05;6.43;;;;;;;;;;5051642;28;20047;-73
2022/11/29 03:02:20;;;;;;;9.63;7.68;;;;;;;;;;5066167;28;20132;-73
2022/11/29 03:05:20;;;;;;;7.95;7.15;;;;;;;;;;5069715;28;20040;-73
2022/11/29 03:07:58;;;;;;;9.25;7.63;;;;;;;;;;5051276;28;20032;-73
2022/11/29 03:10:50;;;;;;;8.27;5.93;;;;;;;;;;5069063;28;20041;-74
2022/11/29 03:13:19;;;;;;;13.77;9.15;;;;;;;;;;5037948;28;20048;-74
2022/11/29 03:15:54;;;;;;;7.93;7.20;;;;;;;;;;5051086;28;20068;-72
2022/11/29 03:18:24;;;;;;;8.20;6.13;;;;;;;;;;5068595;28;20036;-71
2022/11/29 03:21:12;;;;;;;14.25;11.70;;;;;;;;;;5034730;28;20040;-71
2022/11/29 03:23:57;;;;;;;10.45;7.80;;;;;;;;;;5050820;28;20048;-72
2022/11/29 03:26:25;;;;;;;10.18;9.13;;;;;;;;;;5068765;28;20068;-73
2022/11/29 03:29:06;;;;;;;11.38;8.73;;;;;;;;;;5042063;28;20059;-73
2022/11/29 03:31:34;;;;;;;12.60;10.75;;;;;;;;;;5088666;28;20035;-72
2022/11/29 03:34:19;;;;;;;10.38;9.38;;;;;;;;;;5054285;28;20075;-73
2022/11/29 03:37:02;;;;;;;7.50;6.65;;;;;;;;;;5070965;28;20089;-73
2022/11/29 03:39:32;;;;;;;10.88;9.50;;;;;;;;;;5074419;28;20089;-73
2022/11/29 03:41:58;;;;;;;8.75;7.85;;;;;;;;;;5092836;28;20038;-73
2022/11/29 03:44:26;;;;;;;8.38;6.60;;;;;;;;;;5053681;28;20058;-74
2022/11/29 03:47:15;;;;;;;7.10;6.40;;;;;;;;;;5038250;28;20043;-74
2022/11/29 03:49:45;;;;;;;8.20;7.38;;;;;;;;;;5080985;28;20424;-74
2022/11/29 03:52:15;;;;;;;9.80;8.88;;;;;;;;;;5049983;28;20059;-75
2022/11/29 03:55:10;;;;;;;8.43;7.72;;;;;;;;;;5017892;28;20044;-75
2022/11/29 03:57:45;;;;;;;8.65;6.45;;;;;;;;;;5047163;28;20044;-74
2022/11/29 04:00:11;;;;;;;8.93;7.30;;;;;;;;;;5053594;28;20041;-76
2022/11/29 04:02:37;;;;;;;10.77;8.02;;;;;;;;;;5053713;28;20045;-76
2022/11/29 04:05:19;;;;;;;8.45;7.32;;;;;;;;;;5071787;28;20547;-75
2022/11/29 04:07:45;;;;;;;5.00;4.60;;;;;;;;;;5071923;28;20042;-75
2022/11/29 04:10:16;;;;;;;5.05;4.65;;;;;;;;;;5071761;28;20029;-74
2022/11/29 04:12:41;;;;;;;6.70;6.10;;;;;;;;;;5054081;28;20032;-75
2022/11/29 04:15:11;;;;;;;11.60;9.30;;;;;;;;;;5071706;28;20048;-75
2022/11/29 04:17:37;;;;;;;7.25;5.93;;;;;;;;;;5071525;28;20151;-74
2022/11/29 04:20:09;;;;;;;8.77;7.65;;;;;;;;;;5053541;28;20540;-74
2022/11/29 04:22:47;;;;;;;10.35;9.23;;;;;;;;;;5036874;28;20048;-74
2022/11/29 04:25:14;;;;;;;9.98;8.90;;;;;;;;;;5068918;28;20123;-74
2022/11/29 04:28:03;;;;;;;11.38;8.65;;;;;;;;;;5052308;28;20047;-74
2022/11/29 04:30:33;;;;;;;5.47;5.05;;;;;;;;;;5051840;28;20169;-75
2022/11/29 04:33:02;;;;;;;9.68;8.15;;;;;;;;;;5035125;28;20067;-73
2022/11/29 04:35:47;;;;;;;5.22;4.72;;;;;;;;;;5051320;28;20040;-73
2022/11/29 04:38:21;;;;;;;11.13;9.93;;;;;;;;;;5070307;28;20037;-73
2022/11/29 04:41:06;;;;;;;10.15;9.10;;;;;;;;;;5048999;28;20113;-74
2022/11/29 04:43:32;;;;;;;16.67;10.88;;;;;;;;;;5047152;28;20110;-75
2022/11/29 04:46:05;;;;;;;7.85;6.32;;;;;;;;;;5070296;28;20040;-75
2022/11/29 04:48:53;;;;;;;7.28;6.40;;;;;;;;;;5034740;28;20063;-75
2022/11/29 04:51:22;;;;;;;17.63;11.52;;;;;;;;;;5069753;28;20036;-75
2022/11/29 04:54:08;;;;;;;8.27;7.45;;;;;;;;;;5069791;28;20075;-75
2022/11/29 04:56:46;;;;;;;16.35;9.68;;;;;;;;;;5069592;28;20551;-75
2022/11/29 04:59:24;;;;;;;14.73;10.40;;;;;;;;;;5035158;28;20043;-76
2022/11/29 05:01:53;;;;;;;9.82;6.75;;;;;;;;;;5034444;28;20066;-74
2022/11/29 05:04:20;;;;;;;10.40;8.80;;;;;;;;;;5069184;28;20137;-74
2022/11/29 05:07:05;;;;;;;12.70;10.60;;;;;;;;;;5052156;28;20028;-74
2022/11/29 05:09:51;;;;;;;12.07;10.40;;;;;;;;;;5051429;28;20032;-74
2022/11/29 05:12:20;;;;;;;8.38;7.35;;;;;;;;;;5011446;28;20040;-75
2022/11/29 05:15:05;;;;;;;7.55;6.72;;;;;;;;;;5034504;28;20074;-74
2022/11/29 05:18:03;;;;;;;8.93;8.23;;;;;;;;;;5018157;28;20040;-74
2022/11/29 05:20:33;;;;;;;16.35;12.60;;;;;;;;;;5024529;28;20048;-75
2022/11/29 05:23:18;;;;;;;13.32;9.25;;;;;;;;;;5051588;28;20055;-73
2022/11/29 05:25:44;;;;;;;6.47;5.75;;;;;;;;;;5068760;28;20078;-74
2022/11/29 05:28:19;;;;;;;12.85;10.02;;;;;;;;;;5068948;28;20064;-73
2022/11/29 05:30:45;;;;;;;11.73;9.88;;;;;;;;;;5047687;28;20032;-75
2022/11/29 05:33:14;;;;;;;19.35;13.75;;;;;;;;;;5066789;28;20035;-74
2022/11/29 05:35:49;;;;;;;13.95;11.48;;;;;;;;;;5065924;28;20042;-75
2022/11/29 05:38:30;;;;;;;12.00;9.45;;;;;;;;;;5050129;28;20020;-74
2022/11/29 05:41:11;;;;;;;14.35;8.80;;;;;;;;;;5066099;28;20037;-74
2022/11/29 05:43:56;;;;;;;14.27;12.05;;;;;;;;;;5065467;28;20143;-75
2022/11/29 05:46:28;;;;;;;13.80;10.93;;;;;;;;;;5044358;28;20067;-74
2022/11/29 05:48:57;;;;;;;15.80;10.85;;;;;;;;;;5045912;28;20035;-73
2022/11/29 05:51:26;;;;;;;13.23;10.65;;;;;;;;;;5066864;28;20035;-74
2022/11/29 05:54:03;;;;;;;15.98;10.23;;;;;;;;;;5047017;28;20055;-74
2022/11/29 05:56:41;;;;;;;16.52;10.25;;;;;;;;;;5036204;28;20353;-76
2022/11/29 05:59:08;;;;;;;7.30;6.63;;;;;;;;;;5056418;28;20506;-75
2022/11/29 06:01:43;;;;;;;16.65;13.18;;;;;;;;;;5066613;28;20037;-74
2022/11/29 06:04:31;;;;;;;8.48;7.55;;;;;;;;;;5056245;28;20067;-74
2022/11/29 06:06:59;;;;;;;9.00;8.10;;;;;;;;;;5060767;28;20039;-74
2022/11/29 06:09:32;;;;;;;9.82;7.03;;;;;;;;;;5013358;28;20064;-74
2022/11/29 06:12:01;;;;;;;14.60;13.10;;;;;;;;;;5032618;28;20029;-75
2022/11/29 06:14:45;;;;;;;11.88;9.27;;;;;;;;;;5060492;28;20048;-75
2022/11/29 06:17:24;;;;;;;21.75;15.73;;;;;;;;;;5043732;28;20075;-74
2022/11/29 06:19:52;;;;;;;15.48;9.60;;;;;;;;;;5030175;28;20047;-74
2022/11/29 06:22:36;;;;;;;10.85;9.07;;;;;;;;;;5049020;28;20049;-74
2022/11/29 06:25:15;;;;;;;11.98;10.77;;;;;;;;;;5049481;28;20461;-74
2022/11/29 06:27:45;;;;;;;15.45;11.10;;;;;;;;;;5036338;28;20040;-75
2022/11/29 06:30:14;;;;;;;21.58;13.13;;;;;;;;;;5031208;28;20135;-74
2022/11/29 06:32:50;;;;;;;17.20;13.25;;;;;;;;;;5061843;28;20024;-73
2022/11/29 06:35:34;;;;;;;6.43;5.82;;;;;;;;;;5049231;28;20041;-73
2022/11/29 06:38:24;;;;;;;17.55;12.43;;;;;;;;;;5038345;28;20453;-73
2022/11/29 06:40:50;;;;;;;20.85;11.88;;;;;;;;;;5040394;28;20037;-74
2022/11/29 06:43:16;;;;;;;8.18;6.85;;;;;;;;;;5065396;28;20052;-74
2022/11/29 06:45:50;;;;;;;13.43;9.70;;;;;;;;;;5048867;28;20043;-72
2022/11/29 06:48:23;;;;;;;14.43;9.23;;;;;;;;;;5029142;28;20925;-72
2022/11/29 06:50:52;;;;;;;17.42;12.48;;;;;;;;;;5029717;28;20548;-72
2022/11/29 06:53:28;;;;;;;21.35;13.75;;;;;;;;;;5066748;28;20031;-73
2022/11/29 06:56:11;;;;;;;17.70;12.38;;;;;;;;;;5049129;28;20040;-74
2022/11/29 06:58:44;;;;;;;23.05;13.90;;;;;;;;;;5066632;28;20063;-76
2022/11/29 07:01:29;;;;;;;24.80;14.80;;;;;;;;;;5067241;28;20039;-75
2022/11/29 07:04:00;;;;;;;10.88;9.23;;;;;;;;;;5067244;28;20101;-76
2022/11/29 07:06:27;;;;;;;30.63;19.05;;;;;;;;;;5067331;28;20416;-75
2022/11/29 07:09:03;;;;;;;16.75;11.82;;;;;;;;;;5039131;28;20531;-74
2022/11/29 07:11:29;;;;;;;22.27;16.63;;;;;;;;;;5067384;28;20036;-75
2022/11/29 07:13:55;;;;;;;16.02;9.60;;;;;;;;;;5016456;28;20048;-75
2022/11/29 07:16:29;;;;;;;10.52;8.20;;;;;;;;;;5016441;28;20055;-75
2022/11/29 07:19:14;;;;;;;25.25;16.90;;;;;;;;;;5028764;28;20445;-74
2022/11/29 07:22:00;;;;;;;15.93;11.05;;;;;;;;;;5069006;28;20129;-76
2022/11/29 07:24:51;;;;;;;9.30;7.72;;;;;;;;;;5042103;28;20094;-76
2022/11/29 07:27:22;;;;;;;5.30;4.88;;;;;;;;;;5066626;28;20671;-74
2022/11/29 07:30:04;;;;;;;4.32;4.03;;;;;;;;;;5069787;28;20032;-74
2022/11/29 07:32:39;;;;;;;10.10;8.65;;;;;;;;;;5041771;28;20131;-75
2022/11/29 07:35:15;;;;;;;6.30;5.78;;;;;;;;;;5038827;28;20501;-74
2022/11/29 07:37:47;;;;;;;6.60;6.03;;;;;;;;;;5052301;28;20032;-77
2022/11/29 07:40:13;;;;;;;15.20;10.77;;;;;;;;;;5071667;28;20055;-75
2022/11/29 07:42:42;;;;;;;7.13;6.45;;;;;;;;;;5070987;28;20082;-75
2022/11/29 07:45:11;;;;;;;7.75;6.93;;;;;;;;;;5070974;28;20121;-76
2022/11/29 07:47:38;;;;;;;7.10;6.35;;;;;;;;;;5036556;28;20071;-76
2022/11/29 07:50:29;;;;;;;8.65;7.70;;;;;;;;;;5071073;28;20529;-76
2022/11/29 07:52:55;;;;;;;5.68;5.15;;;;;;;;;;5053138;28;20660;-76
2022/11/29 07:58:37;;;;;;;8.68;7.65;;;;;;;;;;5023669;28;20043;-75
2022/11/29 08:01:03;;;;;;;13.00;10.23;;;;;;;;;;5027176;28;21435;-76
2022/11/29 08:03:29;;;;;;;7.95;7.18;;;;;;;;;;5072862;28;20049;-76
2022/11/29 08:05:55;;;;;;;10.63;9.48;;;;;;;;;;5052155;28;20051;-75
2022/11/29 08:08:21;;;;;;;10.38;7.32;;;;;;;;;;5074583;28;20032;-75
2022/11/29 08:10:47;;;;;;;5.85;5.07;;;;;;;;;;5063760;28;20036;-76
2022/11/29 08:13:13;;;;;;;7.88;6.88;;;;;;;;;;5082551;28;20044;-76
2022/11/29 08:15:44;;;;;;;9.77;8.60;;;;;;;;;;5065934;28;20040;-76
2022/11/29 08:18:10;;;;;;;7.63;6.40;;;;;;;;;;5079971;28;20033;-75
2022/11/29 08:20:36;;;;;;;7.05;6.40;;;;;;;;;;5042763;28;20037;-76
2022/11/29 08:23:02;;;;;;;8.82;7.93;;;;;;;;;;5037485;28;20477;-76
2022/11/29 08:25:28;;;;;;;12.10;9.07;;;;;;;;;;5070676;28;20105;-76
2022/11/29 08:28:00;;;;;;;8.57;7.80;;;;;;;;;;5071208;28;20508;-77
2022/11/29 08:30:26;;;;;;;10.07;8.98;;;;;;;;;;5079021;28;20040;-77
2022/11/29 08:32:52;;;;;;;4.90;3.90;;;;;;;;;;5071222;28;20035;-77
2022/11/29 08:35:18;;;;;;;9.27;7.28;;;;;;;;;;5070575;28;20040;-76
2022/11/29 08:37:45;;;;;;;6.03;5.53;;;;;;;;;;5070559;28;20476;-75
2022/11/29 08:40:11;;;;;;;6.03;4.82;;;;;;;;;;5070640;28;20028;-75
2022/11/29 08:42:37;;;;;;;10.30;9.32;;;;;;;;;;5070310;28;20512;-75
2022/11/29 08:45:05;;;;;;;10.68;9.57;;;;;;;;;;5055270;28;20051;-74
2022/11/29 08:50:17;;;;;;;8.95;7.88;;;;;;;;;;5048380;28;20452;-77
2022/11/29 08:55:45;;;;;;;8.05;6.28;;;;;;;;;;5051018;28;20547;-78
2022/11/29 08:58:12;;;;;;;14.60;10.80;;;;;;;;;;5038969;28;20032;-77
2022/11/29 09:00:38;;;;;;;10.13;7.47;;;;;;;;;;5069038;28;20083;-77
2022/11/29 09:05:48;;;;;;;12.30;7.85;;;;;;;;;;5075002;28;20405;-77
2022/11/29 09:08:15;;;;;;;10.52;8.65;;;;;;;;;;5054064;28;20501;-77
2022/11/29 09:10:40;;;;;;;13.40;10.25;;;;;;;;;;5053747;28;20028;-78
2022/11/29 09:13:07;;;;;;;14.55;11.32;;;;;;;;;;5051929;28;20067;-77
2022/11/29 09:15:33;;;;;;;11.68;8.55;;;;;;;;;;5070554;28;20036;-78
2022/11/29 09:17:59;;;;;;;9.32;8.25;;;;;;;;;;5069588;28;20627;-78
2022/11/29 09:20:25;;;;;;;14.27;8.13;;;;;;;;;;5052399;28;20115;-78
2022/11/29 09:22:51;;;;;;;4.47;4.20;;;;;;;;;;5069767;28;20056;-77
2022/11/29 09:25:17;;;;;;;10.35;8.73;;;;;;;;;;5052232;28;20029;-78
2022/11/29 09:27:50;;;;;;;14.90;9.48;;;;;;;;;;5052220;28;20032;-80
2022/11/29 09:30:17;;;;;;;15.90;12.98;;;;;;;;;;5018451;28;20048;-78
2022/11/29 09:32:57;;;;;;;8.65;6.80;;;;;;;;;;5070114;28;20127;-76
2022/11/29 09:35:24;;;;;;;13.00;8.65;;;;;;;;;;5049104;28;20043;-78
2022/11/29 09:37:50;;;;;;;15.52;10.13;;;;;;;;;;5018892;28;20404;-79
2022/11/29 09:40:17;;;;;;;9.70;6.22;;;;;;;;;;5052341;28;20067;-78
2022/11/29 09:43:16;;;;;;;8.18;5.72;;;;;;;;;;5051660;28;20162;-79
2022/11/29 09:45:42;;;;;;;15.15;9.75;;;;;;;;;;5025142;28;20410;-78
2022/11/29 09:48:26;;;;;;;14.38;9.35;;;;;;;;;;5069881;28;20036;-79
2022/11/29 09:50:53;;;;;;;22.23;10.32;;;;;;;;;;5039882;28;20525;-79
2022/11/29 09:53:34;;;;;;;12.32;8.82;;;;;;;;;;5034297;28;20115;-79
2022/11/29 09:56:07;;;;;;;7.53;6.65;;;;;;;;;;5032911;28;20528;-79
2022/11/29 09:58:42;;;;;;;17.90;11.38;;;;;;;;;;5069999;28;20389;-78
2022/11/29 10:01:10;;;;;;;8.23;6.57;;;;;;;;;;5051799;28;20072;-78
2022/11/29 10:03:40;;;;;;;10.65;8.88;;;;;;;;;;5069320;28;20044;-78
2022/11/29 10:06:16;;;;;;;19.63;11.63;;;;;;;;;;5046447;28;20504;-79
2022/11/29 10:08:49;;;;;;;26.23;12.30;;;;;;;;;;5040922;28;20037;-79
2022/11/29 10:11:16;;;;;;;5.15;4.75;;;;;;;;;;5056121;28;20365;-79
2022/11/29 10:13:44;;;;;;;4.95;4.55;;;;;;;;;;5034694;28;20028;-78
2022/11/29 10:16:10;;;;;;;4.78;4.38;;;;;;;;;;5052134;28;20049;-79
2022/11/29 10:18:37;;;;;;;18.58;13.45;;;;;;;;;;5045771;28;20037;-77
2022/11/29 10:21:05;;;;;;;11.15;9.68;;;;;;;;;;5061687;28;20051;-78
2022/11/29 10:23:41;;;;;;;14.38;10.43;;;;;;;;;;5051541;28;20048;-76
2022/11/29 10:26:09;;;;;;;25.42;14.30;;;;;;;;;;5015078;28;20035;-77
2022/11/29 10:28:43;;;;;;;13.25;10.05;;;;;;;;;;5045851;28;20043;-80
2022/11/29 10:31:28;;;;;;;14.00;9.77;;;;;;;;;;5048416;28;20039;-78
2022/11/29 10:33:58;;;;;;;27.42;16.67;;;;;;;;;;5069359;28;20040;-79
2022/11/29 10:36:25;;;;;;;31.60;14.40;;;;;;;;;;5035001;28;20500;-79
2022/11/29 10:38:52;;;;;;;13.68;11.40;;;;;;;;;;5034850;28;20037;-78
2022/11/29 10:41:20;;;;;;;16.33;10.75;;;;;;;;;;5069811;28;20028;-79
2022/11/29 10:43:46;;;;;;;25.50;12.88;;;;;;;;;;5035156;28;20064;-78
2022/11/29 10:46:15;;;;;;;37.55;18.20;;;;;;;;;;5035406;28;20031;-79
2022/11/29 10:48:41;;;;;;;27.77;15.98;;;;;;;;;;5070287;28;20047;-80
2022/11/29 10:51:11;;;;;;;36.80;22.30;;;;;;;;;;5070566;28;20063;-78
2022/11/29 10:53:37;;;;;;;28.77;12.18;;;;;;;;;;5015740;28;20033;-78
2022/11/29 10:56:07;;;;;;;37.00;23.25;;;;;;;;;;5049994;28;20472;-78
2022/11/29 10:58:33;;;;;;;20.83;10.15;;;;;;;;;;5068379;28;20071;-78
2022/11/29 11:01:05;;;;;;;30.52;16.02;;;;;;;;;;5047412;28;20453;-78
2022/11/29 11:03:34;;;;;;;39.38;24.35;;;;;;;;;;5051478;28;20181;-79
2022/11/29 11:06:16;;;;;;;13.15;9.73;;;;;;;;;;5069291;28;20482;-78
2022/11/29 11:08:47;;;;;;;34.08;21.48;;;;;;;;;;5051082;28;20028;-78
2022/11/29 11:11:13;;;;;;;24.52;15.70;;;;;;;;;;5034099;28;20032;-78
2022/11/29 11:13:39;;;;;;;15.35;10.70;;;;;;;;;;5032819;28;20037;-77
2022/11/29 11:16:14;;;;;;;12.98;8.70;;;;;;;;;;5065963;28;20166;-78
2022/11/29 11:18:40;;;;;;;6.53;6.03;;;;;;;;;;5050636;28;20502;-77
2022/11/29 11:21:09;;;;;;;6.45;5.85;;;;;;;;;;5051664;28;20082;-78
2022/11/29 11:23:36;;;;;;;20.83;11.98;;;;;;;;;;5063063;28;20261;-78
2022/11/29 11:26:03;;;;;;;7.95;7.07;;;;;;;;;;5052074;28;20066;-78
2022/11/29 11:28:30;;;;;;;11.15;8.52;;;;;;;;;;5034893;28;20473;-77
2022/11/29 11:30:58;;;;;;;13.07;9.02;;;;;;;;;;5050947;28;20408;-77
2022/11/29 11:33:25;;;;;;;23.73;12.85;;;;;;;;;;5032330;28;20086;-78
2022/11/29 11:36:00;;;;;;;31.13;20.20;;;;;;;;;;5068080;28;20028;-81
2022/11/29 11:38:26;;;;;;;9.82;8.80;;;;;;;;;;5070278;28;20055;-81
2022/11/29 11:41:02;;;;;;;15.65;9.63;;;;;;;;;;5070646;28;20033;-80
2022/11/29 11:43:28;;;;;;;18.85;12.02;;;;;;;;;;5056714;28;20424;-79
2022/11/29 11:45:54;;;;;;;26.80;15.35;;;;;;;;;;5036053;28;20036;-80
2022/11/29 11:48:21;;;;;;;18.95;13.75;;;;;;;;;;5063409;28;20120;-79
2022/11/29 11:50:51;;;;;;;18.65;11.38;;;;;;;;;;5036188;28;20493;-81
2022/11/29 11:53:21;;;;;;;13.48;11.98;;;;;;;;;;5032166;28;20048;-79
2022/11/29 11:56:03;;;;;;;18.55;11.77;;;;;;;;;;5036553;28;20063;-81
2022/11/29 11:58:44;;;;;;;17.10;11.85;;;;;;;;;;5048291;28;20063;-80
2022/11/29 12:01:13;;;;;;;20.83;12.73;;;;;;;;;;5073014;28;20037;-80
2022/11/29 12:03:43;;;;;;;14.07;9.30;;;;;;;;;;5068704;28;20753;-82
2022/11/29 12:06:24;;;;;;;16.02;9.77;;;;;;;;;;5057166;28;20095;-83
2022/11/29 12:08:50;;;;;;;18.80;12.88;;;;;;;;;;5051637;28;20335;-82
2022/11/29 12:11:16;;;;;;;8.27;7.57;;;;;;;;;;5033512;28;20087;-78
2022/11/29 12:13:52;;;;;;;13.73;9.48;;;;;;;;;;5055721;28;20131;-81
2022/11/29 12:16:27;;;;;;;13.18;10.63;;;;;;;;;;5026784;28;20028;-79
2022/11/29 12:19:14;;;;;;;9.45;8.55;;;;;;;;;;5034146;28;20497;-83
2022/11/29 12:21:41;;;;;;;22.33;15.40;;;;;;;;;;5055288;28;20122;-79
2022/11/29 12:24:12;;;;;;;12.95;10.32;;;;;;;;;;5071863;28;20549;-79
2022/11/29 12:26:39;;;;;;;30.80;18.48;;;;;;;;;;5054031;28;20028;-79
2022/11/29 12:29:15;;;;;;;11.27;7.90;;;;;;;;;;5037210;28;20033;-80
2022/11/29 12:31:54;;;;;;;21.85;14.30;;;;;;;;;;5071684;28;20440;-79
2022/11/29 12:34:43;;;;;;;25.45;14.50;;;;;;;;;;5017730;28;20147;-82
2022/11/29 12:37:14;;;;;;;20.98;12.38;;;;;;;;;;5041364;28;20060;-80
2022/11/29 12:39:50;;;;;;;17.05;11.75;;;;;;;;;;5053486;28;20082;-78
2022/11/29 12:42:34;;;;;;;25.77;11.32;;;;;;;;;;5046167;28;20059;-78
2022/11/29 12:45:06;;;;;;;13.27;11.10;;;;;;;;;;5052809;28;20192;-79
2022/11/29 12:47:40;;;;;;;10.57;8.43;;;;;;;;;;5070399;28;20029;-79
2022/11/29 12:50:15;;;;;;;31.85;16.55;;;;;;;;;;5068836;28;20060;-80
2022/11/29 12:52:44;;;;;;;28.08;17.23;;;;;;;;;;5039743;28;20086;-81
2022/11/29 12:55:18;;;;;;;14.73;11.13;;;;;;;;;;5053901;28;20033;-80
2022/11/29 12:57:48;;;;;;;20.63;14.18;;;;;;;;;;5052657;28;20033;-79
2022/11/29 13:00:35;;;;;;;19.63;14.05;;;;;;;;;;5032563;28;20037;-78
2022/11/29 13:03:28;;;;;;;31.08;16.27;;;;;;;;;;5066964;28;20520;-78
2022/11/29 13:06:23;;;;;;;35.33;14.82;;;;;;;;;;5070264;28;20572;-79
2022/11/29 13:08:58;;;;;;;35.13;17.15;;;;;;;;;;5023329;28;20527;-79
2022/11/29 13:11:29;;;;;;;36.65;18.45;;;;;;;;;;5069874;28;20029;-80
2022/11/29 13:14:12;;;;;;;21.42;14.45;;;;;;;;;;5003185;28;20060;-78
2022/11/29 13:16:44;;;;;;;22.35;14.43;;;;;;;;;;5069485;28;20162;-75
2022/11/29 13:19:09;;;;;;;;;;;;;;;;;;5070790;28;20028;-78
2022/11/29 13:21:39;;;;;;;18.00;11.63;;;;;;;;;;5069556;28;20422;-77
2022/11/29 13:27:35;;;;;;;13.05;10.88;;;;;;;;;;5050100;28;20420;-77
2022/11/29 13:30:03;;;;;;;19.33;14.00;;;;;;;;;;5069033;28;20035;-78
2022/11/29 13:33:00;;;;;;;28.00;16.25;;;;;;;;;;5074186;28;20128;-82
2022/11/29 13:35:29;;;;;;;28.38;19.42;;;;;;;;;;5020809;28;20040;-78
2022/11/29 13:37:57;;;;;;;19.95;12.90;;;;;;;;;;5040140;28;20036;-79
2022/11/29 13:40:32;;;;;;;16.08;13.02;;;;;;;;;;5034239;28;20558;-77
2022/11/29 13:42:58;;;;;;;19.20;11.90;;;;;;;;;;5050918;28;20048;-77
2022/11/29 13:45:27;;;;;;;31.60;17.85;;;;;;;;;;5058713;28;20053;-77
2022/11/29 13:48:25;;;;;;;27.63;11.65;;;;;;;;;;5053677;28;20032;-78
2022/11/29 13:50:56;;;;;;;21.23;13.05;;;;;;;;;;5068275;28;20382;-80
2022/11/29 13:53:26;;;;;;;18.02;11.93;;;;;;;;;;5049208;28;20042;-80
2022/11/29 13:56:00;;;;;;;22.25;13.07;;;;;;;;;;5033181;28;20032;-81
2022/11/29 13:58:26;;;;;;;15.95;11.25;;;;;;;;;;5050944;28;20032;-77
2022/11/29 14:00:52;;;;;;;15.85;11.05;;;;;;;;;;5048676;28;20503;-77
2022/11/29 14:03:28;;;;;;;19.88;12.10;;;;;;;;;;5051377;28;20180;-79
2022/11/29 14:09:24;;;;;;;25.27;16.25;;;;;;;;;;5028108;28;20037;-78
2022/11/29 14:11:50;;;;;;;18.70;11.30;;;;;;;;;;4995988;28;20509;-78
2022/11/29 14:14:29;;;;;;;40.55;25.35;;;;;;;;;;5041722;28;20033;-79
2022/11/29 14:16:57;;;;;;;36.00;22.08;;;;;;;;;;5015079;28;20033;-77
2022/11/29 14:19:30;;;;;;;16.52;13.02;;;;;;;;;;5031049;28;20135;-77
2022/11/29 14:22:00;;;;;;;14.52;11.00;;;;;;;;;;5031098;28;20124;-78
2022/11/29 14:24:35;;;;;;;18.90;11.90;;;;;;;;;;5048706;28;20049;-77
2022/11/29 14:27:04;;;;;;;18.30;11.63;;;;;;;;;;5049716;28;20029;-77
2022/11/29 14:29:49;;;;;;;28.35;17.40;;;;;;;;;;5011102;28;20057;-77
2022/11/29 14:32:33;;;;;;;17.55;12.27;;;;;;;;;;5037312;28;20036;-77
2022/11/29 14:35:08;;;;;;;31.55;19.98;;;;;;;;;;5048640;28;20127;-77
2022/11/29 14:37:53;;;;;;;26.35;15.18;;;;;;;;;;5024015;28;20041;-78
2022/11/29 14:40:38;;;;;;;29.65;16.80;;;;;;;;;;5030567;28;20036;-78
2022/11/29 14:43:04;;;;;;;34.95;19.13;;;;;;;;;;5053245;28;20071;-78
2022/11/29 14:45:31;;;;;;;30.38;14.25;;;;;;;;;;5050086;28;20131;-78
2022/11/29 14:47:58;;;;;;;20.65;12.88;;;;;;;;;;5041050;28;20045;-77
2022/11/29 14:50:41;;;;;;;22.38;14.15;;;;;;;;;;5015605;28;20531;-78
2022/11/29 14:53:26;;;;;;;27.73;13.48;;;;;;;;;;5075278;28;20032;-77
2022/11/29 14:55:52;;;;;;;34.88;15.73;;;;;;;;;;5035925;28;20043;-78
2022/11/29 14:58:18;;;;;;;22.15;13.63;;;;;;;;;;5050037;28;20040;-78
2022/11/29 15:00:47;;;;;;;12.38;10.05;;;;;;;;;;5050631;28;20055;-78
2022/11/29 15:03:23;;;;;;;5.25;4.85;;;;;;;;;;5044190;28;20230;-79
2022/11/29 15:05:52;;;;;;;22.25;13.75;;;;;;;;;;5019403;28;21838;-80
2022/11/29 15:08:24;;;;;;;14.40;10.32;;;;;;;;;;5052033;28;20572;-79
2022/11/29 15:10:55;;;;;;;18.52;12.18;;;;;;;;;;5071506;28;20060;-78
2022/11/29 15:13:26;;;;;;;27.35;16.98;;;;;;;;;;5055489;28;20028;-77
2022/11/29 15:16:12;;;;;;;14.77;10.20;;;;;;;;;;5044452;28;20032;-76
2022/11/29 15:19:00;;;;;;;8.52;7.40;;;;;;;;;;5043403;28;20052;-76